Time,TemperatureF,DewpointF,PressureIn,WindDirection,WindDirectionDegrees,WindSpeedMPH,WindSpeedGustMPH,Humidity,HourlyPrecipIn,Conditions,Clouds,dailyrainin,SolarRadiationWatts/m^2,SoftwareType,DateUTC
2013-05-02 00:21:00,55.0,52.0,30.07,North,356,6.0,7.0,90,0.00,,,0.00,0.000000,,2013-05-02 07:21:00,
2013-05-02 00:31:00,55.0,52.0,30.07,North,356,6.0,7.0,90,0.00,,,0.00,0.000000,,2013-05-02 07:31:00,
2013-05-02 00:41:00,55.0,52.0,30.07,North,356,6.0,7.0,90,0.00,,,0.00,0.000000,,2013-05-02 07:41:00,
2013-05-02 00:52:00,55.0,52.0,30.07,North,356,6.0,7.0,90,0.00,,,0.00,0.000000,,2013-05-02 07:52:00,
2013-05-02 01:22:00,55.0,52.0,30.07,North,4,7.0,8.0,90,0.00,,,0.00,0.000000,,2013-05-02 08:22:00,
2013-05-02 01:32:00,55.0,52.0,30.07,North,4,7.0,8.0,90,0.00,,,0.00,0.000000,,2013-05-02 08:32:00,
2013-05-02 01:42:00,55.0,52.0,30.07,North,4,7.0,8.0,90,0.00,,,0.00,0.000000,,2013-05-02 08:42:00,
2013-05-02 01:52:00,55.0,52.0,30.07,North,4,7.0,8.0,90,0.00,,,0.00,0.000000,,2013-05-02 08:52:00,
2013-05-02 02:21:00,55.0,52.0,30.06,North,4,7.0,11.0,90,0.00,,,0.00,0.000000,,2013-05-02 09:21:00,
2013-05-02 02:32:00,55.0,52.0,30.06,North,4,7.0,11.0,90,0.00,,,0.00,0.000000,,2013-05-02 09:32:00,
2013-05-02 02:42:00,55.0,52.0,30.06,North,4,7.0,11.0,90,0.00,,,0.00,0.000000,,2013-05-02 09:42:00,
2013-05-02 02:52:00,55.0,52.0,30.06,North,4,7.0,11.0,90,0.00,,,0.00,0.000000,,2013-05-02 09:52:00,
2013-05-02 03:22:00,54.0,51.0,30.06,North,5,5.0,11.0,89,0.00,,,0.00,0.000000,,2013-05-02 10:22:00,
2013-05-02 03:32:00,54.0,51.0,30.06,North,5,5.0,11.0,89,0.00,,,0.00,0.000000,,2013-05-02 10:32:00,
2013-05-02 03:42:00,54.0,51.0,30.06,North,5,5.0,11.0,89,0.00,,,0.00,0.000000,,2013-05-02 10:42:00,
2013-05-02 03:52:00,54.0,51.0,30.06,North,5,5.0,11.0,89,0.00,,,0.00,0.000000,,2013-05-02 10:52:00,
2013-05-02 04:22:00,52.0,51.0,30.06,NNE,16,6.0,11.0,96,0.00,,,0.00,0.000000,,2013-05-02 11:22:00,
2013-05-02 04:32:00,52.0,51.0,30.06,NNE,16,6.0,11.0,96,0.00,,,0.00,0.000000,,2013-05-02 11:32:00,
2013-05-02 04:42:00,52.0,51.0,30.06,NNE,16,6.0,11.0,96,0.00,,,0.00,0.000000,,2013-05-02 11:42:00,
2013-05-02 04:52:00,52.0,51.0,30.06,NNE,16,6.0,11.0,96,0.00,,,0.00,0.000000,,2013-05-02 11:52:00,
2013-05-02 05:21:00,52.0,52.0,30.06,North,6,4.0,11.0,99,0.00,,,0.00,0.000000,,2013-05-02 12:21:00,
2013-05-02 05:32:00,52.0,52.0,30.06,North,6,4.0,11.0,99,0.00,,,0.00,0.000000,,2013-05-02 12:32:00,
2013-05-02 05:42:00,52.0,52.0,30.06,North,6,4.0,11.0,99,0.00,,,0.00,0.000000,,2013-05-02 12:42:00,
2013-05-02 05:52:00,52.0,52.0,30.06,North,6,4.0,11.0,99,0.00,,,0.00,0.000000,,2013-05-02 12:52:00,
2013-05-02 06:21:00,52.0,52.0,30.07,North,8,4.0,9.0,99,0.00,,,0.00,0.000000,,2013-05-02 13:21:00,
2013-05-02 06:31:00,52.0,52.0,30.07,North,8,4.0,9.0,99,0.00,,,0.00,0.000000,,2013-05-02 13:31:00,
2013-05-02 07:22:00,57.0,57.0,30.08,NE,41,2.0,10.0,100,0.00,,,0.00,31.000000,,2013-05-02 14:22:00,
2013-05-02 07:32:00,57.0,57.0,30.08,NE,41,2.0,10.0,100,0.00,,,0.00,31.000000,,2013-05-02 14:32:00,
2013-05-02 07:42:00,57.0,57.0,30.08,NE,41,2.0,10.0,100,0.00,,,0.00,31.000000,,2013-05-02 14:42:00,
2013-05-02 07:52:00,57.0,57.0,30.08,NE,41,2.0,10.0,100,0.00,,,0.00,31.000000,,2013-05-02 14:52:00,
2013-05-02 08:22:00,64.0,57.0,30.08,ESE,117,3.0,5.0,77,0.00,,,0.00,211.000000,,2013-05-02 15:22:00,
2013-05-02 08:33:00,64.0,57.0,30.08,ESE,117,3.0,5.0,77,0.00,,,0.00,211.000000,,2013-05-02 15:33:00,
2013-05-02 11:21:00,71.0,59.0,30.09,SW,231,8.0,11.0,67,0.00,,,0.00,827.000000,,2013-05-02 18:21:00,
2013-05-02 11:31:00,71.0,59.0,30.09,SW,231,8.0,11.0,67,0.00,,,0.00,827.000000,,2013-05-02 18:31:00,
2013-05-02 12:21:00,71.0,60.0,30.09,WSW,243,11.0,14.0,68,0.00,,,0.00,969.000000,,2013-05-02 19:21:00,
2013-05-02 13:22:00,71.0,58.0,30.08,WSW,238,11.0,17.0,63,0.00,,,0.00,1042.000000,,2013-05-02 20:22:00,
2013-05-02 13:32:00,71.0,58.0,30.08,WSW,238,11.0,17.0,63,0.00,,,0.00,1042.000000,,2013-05-02 20:32:00,
2013-05-02 14:21:00,76.0,52.0,30.08,WSW,254,9.0,17.0,44,-99.99,,,0.00,1045.000000,,2013-05-02 21:21:00,
2013-05-02 14:42:00,76.0,52.0,30.08,WSW,254,9.0,17.0,44,-99.99,,,0.00,1045.000000,,2013-05-02 21:42:00,
2013-05-02 14:53:00,76.0,52.0,30.08,WSW,254,9.0,17.0,44,-99.99,,,0.00,1045.000000,,2013-05-02 21:53:00,
2013-05-02 15:22:00,74.0,57.0,30.05,WSW,250,13.0,18.0,56,0.00,,,0.00,983.000000,,2013-05-02 22:22:00,
2013-05-02 15:32:00,74.0,57.0,30.05,WSW,250,13.0,18.0,56,0.00,,,0.00,983.000000,,2013-05-02 22:32:00,
2013-05-02 15:42:00,74.0,57.0,30.05,WSW,250,13.0,18.0,56,0.00,,,0.00,983.000000,,2013-05-02 22:42:00,
2013-05-02 15:52:00,74.0,57.0,30.05,WSW,250,13.0,18.0,56,0.00,,,0.00,983.000000,,2013-05-02 22:52:00,
2013-05-02 16:22:00,71.0,58.0,30.02,WSW,251,14.0,19.0,64,0.00,,,0.00,854.000000,,2013-05-02 23:22:00,
2013-05-02 16:42:00,71.0,58.0,30.02,WSW,251,14.0,19.0,64,0.00,,,0.00,854.000000,,2013-05-02 23:42:00,
2013-05-02 16:51:00,71.0,58.0,30.02,WSW,251,14.0,19.0,64,0.00,,,0.00,854.000000,,2013-05-02 23:51:00,
2013-05-02 17:21:00,72.0,57.0,29.99,WSW,255,13.0,21.0,59,0.00,,,0.00,676.000000,,2013-05-03 00:21:00,
2013-05-02 17:31:00,72.0,57.0,29.99,WSW,255,13.0,21.0,59,0.00,,,0.00,676.000000,,2013-05-03 00:31:00,
2013-05-02 17:41:00,72.0,57.0,29.99,WSW,255,13.0,21.0,59,0.00,,,0.00,676.000000,,2013-05-03 00:41:00,
2013-05-02 17:52:00,72.0,57.0,29.99,WSW,255,13.0,21.0,59,0.00,,,0.00,676.000000,,2013-05-03 00:52:00,
2013-05-02 18:21:00,68.0,55.0,29.99,West,265,15.0,21.0,63,0.00,,,0.00,458.000000,,2013-05-03 01:21:00,
2013-05-02 18:31:00,68.0,55.0,29.99,West,265,15.0,21.0,63,0.00,,,0.00,458.000000,,2013-05-03 01:31:00,
2013-05-02 18:41:00,68.0,55.0,29.99,West,265,15.0,21.0,63,0.00,,,0.00,458.000000,,2013-05-03 01:41:00,
2013-05-02 18:52:00,68.0,55.0,29.99,West,265,15.0,21.0,63,0.00,,,0.00,458.000000,,2013-05-03 01:52:00,
2013-05-02 19:21:00,65.0,55.0,29.99,West,271,8.0,23.0,71,0.00,,,0.00,144.000000,,2013-05-03 02:21:00,
2013-05-02 19:41:00,65.0,55.0,29.99,West,271,8.0,23.0,71,0.00,,,0.00,144.000000,,2013-05-03 02:41:00,
2013-05-02 19:52:00,65.0,55.0,29.99,West,271,8.0,23.0,71,0.00,,,0.00,144.000000,,2013-05-03 02:52:00,
2013-05-02 20:42:00,63.0,51.0,29.97,East,80,2.0,14.0,66,0.00,,,0.00,11.000000,,2013-05-03 03:42:00,
2013-05-02 20:52:00,63.0,51.0,29.97,East,80,2.0,14.0,66,0.00,,,0.00,11.000000,,2013-05-03 03:52:00,
2013-05-02 21:22:00,63.0,47.0,29.97,ESE,123,3.0,5.0,56,0.00,,,0.00,0.000000,,2013-05-03 04:22:00,
2013-05-02 21:32:00,63.0,47.0,29.97,ESE,123,3.0,5.0,56,0.00,,,0.00,0.000000,,2013-05-03 04:32:00,
2013-05-02 21:42:00,63.0,47.0,29.97,ESE,123,3.0,5.0,56,0.00,,,0.00,0.000000,,2013-05-03 04:42:00,
2013-05-02 21:52:00,63.0,47.0,29.97,ESE,123,3.0,5.0,56,0.00,,,0.00,0.000000,,2013-05-03 04:52:00,
2013-05-02 22:21:00,66.0,41.0,29.97,West,273,6.0,13.0,40,0.00,,,0.00,0.000000,,2013-05-03 05:21:00,
2013-05-02 22:32:00,66.0,41.0,29.97,West,273,6.0,13.0,40,0.00,,,0.00,0.000000,,2013-05-03 05:32:00,
2013-05-02 22:42:00,66.0,41.0,29.97,West,273,6.0,13.0,40,0.00,,,0.00,0.000000,,2013-05-03 05:42:00,
2013-05-02 22:52:00,66.0,41.0,29.97,West,273,6.0,13.0,40,0.00,,,0.00,0.000000,,2013-05-03 05:52:00,
2013-05-02 23:21:00,70.0,34.0,29.96,SW,236,6.0,13.0,26,0.00,,,-99.99,0.000000,,2013-05-03 06:21:00,
2013-05-02 23:32:00,70.0,34.0,29.96,SW,236,6.0,13.0,26,0.00,,,-99.99,0.000000,,2013-05-03 06:32:00,
2013-05-02 23:42:00,70.0,34.0,29.96,SW,236,6.0,13.0,26,0.00,,,-99.99,0.000000,,2013-05-03 06:42:00,
2013-05-02 23:51:00,70.0,34.0,29.96,SW,236,6.0,13.0,26,0.00,,,-99.99,0.000000,,2013-05-03 06:51:00,